createdAt,value
2022-12-17T00:01:22.213Z,101723.01
2022-12-17T00:04:08.877Z,101722.23
2022-12-17T00:06:56.429Z,101725.85
2022-12-17T00:09:48.585Z,101729.09
2022-12-17T00:12:36.360Z,101726.64
2022-12-17T00:15:23.165Z,101731.91
2022-12-17T00:18:09.672Z,101735.50
2022-12-17T00:20:56.038Z,101743.58
2022-12-17T00:23:42.942Z,101739.91
2022-12-17T00:26:29.528Z,101760.45
2022-12-17T00:29:26.523Z,101751.20
2022-12-17T00:32:13.116Z,101765.65
2022-12-17T00:34:59.191Z,101755.19
2022-12-17T00:37:45.398Z,101766.86
2022-12-17T00:40:31.906Z,101772.06
2022-12-17T00:43:29.692Z,101767.61
2022-12-17T00:46:16.344Z,101772.84
2022-12-17T00:49:02.562Z,101780.85
2022-12-17T00:51:49.045Z,101782.85
2022-12-17T00:54:35.424Z,101776.84
2022-12-17T00:57:21.666Z,101776.84
2022-12-17T01:00:08.026Z,101784.02
2022-12-17T01:02:54.566Z,101787.59
2022-12-17T01:05:42.593Z,101792.43
2022-12-17T01:08:30.218Z,101805.25
2022-12-17T01:11:24.915Z,101805.19
2022-12-17T01:14:12.114Z,101801.13
2022-12-17T01:16:58.536Z,101810.35
2022-12-17T01:19:44.794Z,101815.55
2022-12-17T01:22:31.300Z,101821.89
2022-12-17T01:25:17.584Z,101833.14
2022-12-17T01:28:08.210Z,101827.03
2022-12-17T01:30:56.913Z,101833.41
2022-12-17T01:33:43.504Z,101832.98
2022-12-17T01:36:29.883Z,101840.17
2022-12-17T01:39:16.110Z,101851.00
2022-12-17T01:42:02.567Z,101849.85
2022-12-17T01:45:06.699Z,101855.41
2022-12-17T01:48:07.151Z,101861.85
2022-12-17T01:50:59.288Z,101855.87
2022-12-17T01:53:50.817Z,101855.48
2022-12-17T01:56:37.683Z,101870.68
2022-12-17T01:59:25.398Z,101870.65
2022-12-17T02:02:13.558Z,101864.14
2022-12-17T02:05:00.113Z,101865.29
2022-12-17T02:08:08.637Z,101877.32
2022-12-17T02:11:18.932Z,101878.34
2022-12-17T02:14:31.963Z,101883.14
2022-12-17T02:17:23.307Z,101877.52
2022-12-17T02:20:40.011Z,101884.81
2022-12-17T02:24:01.794Z,101882.39
2022-12-17T02:26:58.283Z,101888.70
2022-12-17T02:29:47.486Z,101885.40
2022-12-17T02:32:34.770Z,101894.13
2022-12-17T02:35:23.895Z,101894.52
2022-12-17T02:38:10.323Z,101892.07
2022-12-17T02:41:14.617Z,101901.35
2022-12-17T02:44:01.043Z,101893.84
2022-12-17T02:46:47.481Z,101897.27
2022-12-17T02:49:33.924Z,101905.18
2022-12-17T02:52:20.444Z,101906.26
2022-12-17T02:55:06.617Z,101914.14
2022-12-17T02:57:54.072Z,101909.79
2022-12-17T03:00:40.436Z,101911.91
2022-12-17T03:03:27.012Z,101904.59
2022-12-17T03:06:13.266Z,101907.73
2022-12-17T03:08:59.531Z,101905.54
2022-12-17T03:11:48.890Z,101909.89
2022-12-17T03:14:35.690Z,101906.16
2022-12-17T03:17:22.164Z,101917.41
2022-12-17T03:20:08.615Z,101910.22
2022-12-17T03:22:54.993Z,101921.95
2022-12-17T03:25:41.592Z,101916.33
2022-12-17T03:28:31.177Z,101913.52
2022-12-17T03:31:18.941Z,101913.55
2022-12-17T03:34:06.274Z,101914.86
2022-12-17T03:36:52.873Z,101918.09
2022-12-17T03:39:38.742Z,101936.90
2022-12-17T03:42:25.039Z,101927.09
2022-12-17T03:45:11.530Z,101930.95
2022-12-17T03:47:57.815Z,101936.02
2022-12-17T03:50:44.334Z,101937.49
2022-12-17T03:53:30.655Z,101931.34
2022-12-17T03:56:16.618Z,101942.13
2022-12-17T03:59:03.075Z,101941.77
2022-12-17T04:01:49.381Z,101938.60
2022-12-17T04:04:35.735Z,101934.91
2022-12-17T04:07:22.318Z,101934.97
2022-12-17T04:10:08.868Z,101929.84
2022-12-17T04:12:54.861Z,101934.97
2022-12-17T04:15:41.525Z,101934.09
2022-12-17T04:18:27.879Z,101942.20
2022-12-17T04:21:14.271Z,101940.70
2022-12-17T04:24:00.624Z,101954.66
2022-12-17T04:26:46.983Z,101955.54
2022-12-17T04:29:33.121Z,101955.44
2022-12-17T04:32:19.433Z,101959.40
2022-12-17T04:35:05.576Z,101957.73
2022-12-17T04:37:51.902Z,101956.78
2022-12-17T04:40:38.041Z,101963.45
2022-12-17T04:43:29.364Z,101979.09
2022-12-17T04:46:15.772Z,101985.13
2022-12-17T04:49:02.387Z,101978.33
2022-12-17T04:51:48.908Z,101977.77
2022-12-17T04:54:35.402Z,101994.23
2022-12-17T04:57:21.435Z,101982.62
2022-12-17T05:00:07.922Z,101986.70
2022-12-17T05:02:54.550Z,101984.31
2022-12-17T05:05:41.137Z,101983.27
2022-12-17T05:08:27.488Z,101988.14
2022-12-17T05:11:13.937Z,101992.63
2022-12-17T05:13:59.955Z,101997.85
2022-12-17T05:16:46.499Z,102003.12
2022-12-17T05:19:33.098Z,102004.16
2022-12-17T05:22:19.262Z,102004.39
2022-12-17T05:25:05.457Z,102015.41
2022-12-17T05:27:51.635Z,102024.63
2022-12-17T05:30:37.884Z,102022.97
2022-12-17T05:33:24.577Z,102027.67
2022-12-17T05:36:11.101Z,102029.70
2022-12-17T05:38:57.536Z,102034.97
2022-12-17T05:41:43.688Z,102035.03
2022-12-17T05:44:30.278Z,102031.80
2022-12-17T05:47:16.104Z,102029.60
2022-12-17T05:50:02.608Z,102037.26
2022-12-17T05:52:48.815Z,102040.59
2022-12-17T05:55:35.704Z,102039.84
2022-12-17T05:58:26.803Z,102045.40
2022-12-17T06:01:17.600Z,102046.71
2022-12-17T06:04:03.796Z,102053.41
2022-12-17T06:06:50.673Z,102048.70
2022-12-17T06:09:37.044Z,102046.45
2022-12-17T06:12:23.184Z,102053.31
2022-12-17T06:15:09.178Z,102053.70
2022-12-17T06:18:03.124Z,102053.70
2022-12-17T06:20:49.521Z,102055.41
2022-12-17T06:23:36.390Z,102059.52
2022-12-17T06:26:22.945Z,102065.22
2022-12-17T06:29:09.232Z,102061.59
2022-12-17T06:31:55.048Z,102068.81
2022-12-17T06:34:41.417Z,102072.24
2022-12-17T06:37:27.631Z,102068.84
2022-12-17T06:40:13.695Z,102081.96
2022-12-17T06:42:59.820Z,102078.30
2022-12-17T06:45:45.639Z,102089.09
2022-12-17T06:48:31.907Z,102084.84
2022-12-17T06:51:18.380Z,102095.56
2022-12-17T06:54:04.730Z,102108.51
2022-12-17T06:56:51.370Z,102114.95
2022-12-17T06:59:37.225Z,102123.36
2022-12-17T07:02:23.604Z,102119.17
2022-12-17T07:05:09.982Z,102121.95
2022-12-17T07:07:56.545Z,102123.48
2022-12-17T07:10:43.505Z,102125.77
2022-12-17T07:13:29.838Z,102127.18
2022-12-17T07:16:16.465Z,102132.61
2022-12-17T07:19:03.025Z,102128.52
2022-12-17T07:21:49.277Z,102136.05
2022-12-17T07:24:55.017Z,102136.41
2022-12-17T07:27:41.377Z,102139.22
2022-12-17T07:30:28.233Z,102145.46
2022-12-17T07:33:21.794Z,102150.43
2022-12-17T07:36:07.883Z,102164.10
2022-12-17T07:38:54.345Z,102164.63
2022-12-17T07:41:40.551Z,102161.19
2022-12-17T07:44:27.072Z,102165.08
2022-12-17T07:47:13.692Z,102172.05
2022-12-17T07:50:00.175Z,102169.50
2022-12-17T07:52:46.083Z,102173.03
2022-12-17T07:55:32.339Z,102170.05
2022-12-17T07:58:24.464Z,102180.81
2022-12-17T08:01:10.893Z,102183.46
2022-12-17T08:03:57.162Z,102188.85
2022-12-17T08:06:43.709Z,102195.66
2022-12-17T08:09:30.316Z,102186.24
2022-12-17T08:12:16.799Z,102198.80
2022-12-17T08:15:03.061Z,102200.34
2022-12-17T08:17:49.372Z,102199.09
2022-12-17T08:20:36.007Z,102203.60
2022-12-17T08:23:25.492Z,102206.02
2022-12-17T08:26:11.831Z,102208.67
2022-12-17T08:28:58.251Z,102220.48
2022-12-17T08:31:44.755Z,102214.82
2022-12-17T08:34:31.001Z,102216.68
2022-12-17T08:37:17.182Z,102222.27
2022-12-17T08:40:03.488Z,102236.17
2022-12-17T08:42:49.755Z,102239.45
2022-12-17T08:45:36.261Z,102244.67
2022-12-17T08:48:27.088Z,102258.51
2022-12-17T08:51:14.000Z,102262.66
2022-12-17T08:54:00.575Z,102255.50
2022-12-17T08:56:47.034Z,102259.95
2022-12-17T08:59:33.388Z,102261.32
2022-12-17T09:02:19.538Z,102265.27
2022-12-17T09:05:06.017Z,102263.61
2022-12-17T09:07:52.556Z,102273.68
2022-12-17T09:10:38.936Z,102284.90
2022-12-17T09:13:25.477Z,102289.70
2022-12-17T09:19:55.712Z,102298.14
2022-12-17T09:22:41.801Z,102300.85
2022-12-17T09:25:28.266Z,102304.91
2022-12-17T09:28:14.736Z,102305.56
2022-12-17T09:31:01.188Z,102305.37
2022-12-17T09:33:47.456Z,102307.00
2022-12-17T09:36:33.688Z,102307.10
2022-12-17T09:39:20.127Z,102301.67
2022-12-17T09:42:18.223Z,102307.27
2022-12-17T09:45:18.920Z,102302.98
2022-12-17T09:48:39.494Z,102305.66
2022-12-17T09:51:31.215Z,102301.77
2022-12-17T09:54:18.067Z,102304.38
2022-12-17T09:57:04.533Z,102307.33
2022-12-17T09:59:55.413Z,102294.21
2022-12-17T10:02:48.907Z,102288.36
2022-12-17T10:05:48.342Z,102286.89
2022-12-17T10:08:39.385Z,102277.73
2022-12-17T10:11:38.708Z,102268.58
2022-12-17T10:14:40.450Z,102274.50
2022-12-17T10:17:35.192Z,102269.82
2022-12-17T10:20:22.122Z,102277.63
2022-12-17T10:23:09.923Z,102277.30
2022-12-17T10:25:56.201Z,102278.65
2022-12-17T10:28:44.310Z,102277.60
2022-12-17T10:31:42.099Z,102281.66
2022-12-17T10:34:39.606Z,102278.20
2022-12-17T10:37:37.892Z,102277.93
2022-12-17T10:41:09.659Z,102280.38
2022-12-17T10:43:58.794Z,102277.67
2022-12-17T10:46:51.999Z,102287.94
2022-12-17T10:49:41.872Z,102284.30
2022-12-17T10:52:58.208Z,102279.99
2022-12-17T10:55:49.658Z,102276.91
2022-12-17T10:58:42.901Z,102275.77
2022-12-17T11:01:40.113Z,102265.77
2022-12-17T11:04:44.726Z,102277.15
2022-12-17T11:07:54.361Z,102266.42
2022-12-17T11:10:44.113Z,102277.08
2022-12-17T11:13:53.384Z,102277.47
2022-12-17T11:16:54.420Z,102281.92
2022-12-17T11:19:58.184Z,102281.52
2022-12-17T11:22:50.987Z,102292.35
2022-12-17T11:26:07.715Z,102282.57
2022-12-17T11:28:55.718Z,102289.38
2022-12-17T11:31:54.098Z,102294.54
2022-12-17T11:34:55.377Z,102298.20
2022-12-17T11:37:58.140Z,102293.27
2022-12-17T11:40:58.615Z,102286.89
2022-12-17T11:43:48.672Z,102284.90
2022-12-17T11:46:49.453Z,102280.97
2022-12-17T11:49:45.065Z,102281.85
2022-12-17T11:53:00.397Z,102281.49
2022-12-17T11:55:52.618Z,102291.63
2022-12-17T11:58:58.898Z,102282.34
2022-12-17T12:01:54.235Z,102287.97
2022-12-17T12:04:49.589Z,102285.22
2022-12-17T12:08:02.635Z,102278.06
2022-12-17T12:11:03.205Z,102270.80
2022-12-17T12:13:58.245Z,102263.25
2022-12-17T12:17:16.618Z,102258.51
2022-12-17T12:20:33.281Z,102249.35
2022-12-17T12:23:31.255Z,102265.50
2022-12-17T12:26:20.695Z,102255.50
2022-12-17T12:29:26.862Z,102262.79
2022-12-17T12:32:39.979Z,102259.65
2022-12-17T12:35:35.097Z,102268.19
2022-12-17T12:38:22.365Z,102273.87
2022-12-17T12:41:19.345Z,102280.74
2022-12-17T12:44:29.077Z,102279.92
2022-12-17T12:47:27.155Z,102284.77
2022-12-17T12:50:34.610Z,102277.87
2022-12-17T12:53:21.125Z,102281.16
2022-12-17T12:56:07.498Z,102282.41
2022-12-17T12:58:54.230Z,102273.55
2022-12-17T13:01:52.025Z,102277.15
2022-12-17T13:04:55.551Z,102275.12
2022-12-17T13:07:28.903Z,102270.28
2022-12-17T13:09:59.300Z,102270.64
2022-12-17T13:12:34.301Z,102273.55
2022-12-17T13:15:07.855Z,102269.16
2022-12-17T13:17:56.404Z,102269.59
2022-12-17T13:20:31.712Z,102263.54
2022-12-17T13:23:27.395Z,102269.07
2022-12-17T13:26:22.049Z,102260.56
2022-12-17T13:28:51.529Z,102262.66
2022-12-17T13:31:26.232Z,102265.90
2022-12-17T13:34:06.238Z,102267.47
2022-12-17T13:37:08.344Z,102261.05
2022-12-17T13:39:47.431Z,102262.76
2022-12-17T13:42:41.593Z,102276.55
2022-12-17T13:45:17.386Z,102274.20
2022-12-17T13:47:45.219Z,102278.65
2022-12-17T13:50:36.688Z,102283.85
2022-12-17T13:53:13.179Z,102286.23
2022-12-17T13:55:41.326Z,102289.84
2022-12-17T13:58:31.612Z,102297.45
2022-12-17T14:01:27.441Z,102294.90
2022-12-17T14:04:06.368Z,102301.31
2022-12-17T14:06:38.823Z,102302.91
2022-12-17T14:09:07.485Z,102300.49
2022-12-17T14:11:57.110Z,102301.31
2022-12-17T14:14:37.381Z,102309.35
2022-12-17T14:17:05.592Z,102312.59
2022-12-17T14:19:34.761Z,102308.51
2022-12-17T14:22:02.620Z,102311.22
2022-12-17T14:24:30.716Z,102313.97
2022-12-17T14:27:00.852Z,102313.09
2022-12-17T14:29:31.692Z,102316.55
2022-12-17T14:32:21.071Z,102319.72
2022-12-17T14:34:48.871Z,102305.66
2022-12-17T14:37:20.918Z,102307.66
2022-12-17T14:39:49.698Z,102305.30
2022-12-17T14:42:30.599Z,102312.92
2022-12-17T14:44:58.297Z,102315.34
2022-12-17T14:47:29.293Z,102322.27
2022-12-17T14:50:00.016Z,102313.45
2022-12-17T14:52:42.639Z,102309.42
2022-12-17T14:55:32.558Z,102311.48
2022-12-17T14:58:15.311Z,102319.55
2022-12-17T15:00:47.191Z,102309.48
2022-12-17T15:03:38.650Z,102315.11
2022-12-17T15:06:08.573Z,102315.05
2022-12-17T15:08:40.943Z,102322.66
2022-12-17T15:11:10.978Z,102321.03
2022-12-17T15:13:38.681Z,102322.60
2022-12-17T15:16:06.951Z,102328.62
2022-12-17T15:18:35.079Z,102341.07
2022-12-17T15:21:03.312Z,102346.70
2022-12-17T15:23:32.420Z,102350.69
2022-12-17T15:26:00.429Z,102349.51
2022-12-17T15:28:28.157Z,102356.28
2022-12-17T15:30:55.972Z,102358.73
2022-12-17T15:33:23.684Z,102373.88
2022-12-17T15:35:51.440Z,102365.30
2022-12-17T15:38:19.130Z,102364.39
2022-12-17T15:40:47.063Z,102362.66
2022-12-17T15:43:15.785Z,102365.73
2022-12-17T15:45:50.350Z,102369.78
2022-12-17T15:48:24.359Z,102366.97
2022-12-17T15:50:52.134Z,102369.36
2022-12-17T15:53:19.905Z,102381.49
2022-12-17T15:55:47.535Z,102382.73
2022-12-17T15:58:15.426Z,102385.64
2022-12-17T16:00:43.190Z,102383.23
2022-12-17T16:03:11.098Z,102384.08
2022-12-17T16:05:38.902Z,102380.51
2022-12-17T16:08:06.735Z,102379.30
2022-12-17T16:10:34.420Z,102371.59
2022-12-17T16:13:02.179Z,102368.77
2022-12-17T16:15:30.112Z,102375.08
2022-12-17T16:17:57.794Z,102376.13
2022-12-17T16:20:25.836Z,102377.27
2022-12-17T16:22:53.535Z,102372.40
2022-12-17T16:25:21.301Z,102368.84
2022-12-17T16:27:48.973Z,102356.84
2022-12-17T16:30:16.835Z,102361.58
2022-12-17T16:32:44.532Z,102363.90
2022-12-17T16:35:12.320Z,102371.48
2022-12-17T16:37:39.984Z,102366.55
2022-12-17T16:40:08.243Z,102368.87
2022-12-17T16:42:35.895Z,102372.43
2022-12-17T16:45:03.549Z,102370.34
2022-12-17T16:47:31.263Z,102377.83
2022-12-17T16:49:58.980Z,102376.65
2022-12-17T16:52:26.708Z,102385.91
2022-12-17T16:54:54.448Z,102388.72
2022-12-17T16:57:22.204Z,102394.57
2022-12-17T16:59:49.955Z,102384.89
2022-12-17T17:02:18.018Z,102392.80
2022-12-17T17:04:46.077Z,102383.48
2022-12-17T17:07:13.768Z,102377.86
2022-12-17T17:09:41.479Z,102376.59
2022-12-17T17:12:10.139Z,102381.79
2022-12-17T17:14:37.889Z,102389.80
2022-12-17T17:17:05.648Z,102386.13
2022-12-17T17:19:33.479Z,102393.43
2022-12-17T17:22:01.203Z,102398.66
2022-12-17T17:24:28.888Z,102395.32
2022-12-17T17:26:56.860Z,102405.82
2022-12-17T17:29:24.838Z,102410.79
2022-12-17T17:32:09.854Z,102410.04
2022-12-17T17:34:39.906Z,102414.13
2022-12-17T17:37:07.741Z,102414.91
2022-12-17T17:39:35.846Z,102424.85
2022-12-17T17:42:03.787Z,102419.59
2022-12-17T17:44:31.478Z,102409.02
2022-12-17T17:46:59.389Z,102415.01
2022-12-17T17:49:27.246Z,102417.82
2022-12-17T17:52:11.330Z,102416.19
2022-12-17T17:54:40.608Z,102414.48
2022-12-17T17:57:08.953Z,102412.42
2022-12-17T17:59:36.726Z,102418.80
2022-12-17T18:02:04.747Z,102427.50
2022-12-17T18:04:33.389Z,102427.56
2022-12-17T18:07:25.334Z,102424.69
2022-12-17T18:09:48.904Z,102429.13
2022-12-17T18:12:35.090Z,102436.36
2022-12-17T18:15:14.265Z,102446.34
2022-12-17T18:17:43.272Z,102443.82
2022-12-17T18:20:11.764Z,102443.75
2022-12-17T18:22:39.431Z,102450.09
2022-12-17T18:25:07.268Z,102449.28
2022-12-17T18:27:34.965Z,102458.99
2022-12-17T18:30:02.637Z,102458.53
2022-12-17T18:32:30.313Z,102463.70
2022-12-17T18:34:58.072Z,102464.59
2022-12-17T18:37:25.835Z,102465.79
2022-12-17T18:39:53.447Z,102458.17
2022-12-17T18:42:39.835Z,102462.66
2022-12-17T18:45:08.228Z,102458.70
2022-12-17T18:47:35.926Z,102469.20
2022-12-17T18:50:03.646Z,102464.32
2022-12-17T18:52:31.381Z,102465.14
2022-12-17T18:54:59.065Z,102457.98
2022-12-17T18:57:26.859Z,102466.84
2022-12-17T18:59:54.523Z,102472.82
2022-12-17T19:02:22.364Z,102474.00
2022-12-17T19:04:50.157Z,102475.60
2022-12-17T19:07:17.832Z,102480.15
2022-12-17T19:09:45.618Z,102480.97
2022-12-17T19:12:13.288Z,102484.66
2022-12-17T19:14:41.118Z,102496.20
2022-12-17T19:17:08.757Z,102491.30
2022-12-17T19:19:36.468Z,102496.20
2022-12-17T19:22:04.578Z,102499.44
2022-12-17T19:24:32.306Z,102495.68
2022-12-17T19:27:00.034Z,102494.47
2022-12-17T19:29:27.918Z,102480.80
2022-12-17T19:31:55.641Z,102494.57
2022-12-17T19:34:23.343Z,102494.41
2022-12-17T19:36:51.361Z,102498.03
2022-12-17T19:39:20.813Z,102504.64
2022-12-17T19:41:48.502Z,102512.52
2022-12-17T19:44:18.494Z,102510.52
2022-12-17T19:46:46.291Z,102505.33
2022-12-17T19:49:16.603Z,102505.82
2022-12-17T19:51:45.219Z,102516.31
2022-12-17T19:54:16.004Z,102509.52
2022-12-17T19:56:45.363Z,102516.51
2022-12-17T19:59:14.230Z,102521.41
2022-12-17T20:01:45.358Z,102531.36
2022-12-17T20:04:14.704Z,102533.65
2022-12-17T20:06:42.813Z,102540.91
2022-12-17T20:09:10.585Z,102539.17
2022-12-17T20:11:38.683Z,102536.85
2022-12-17T20:14:16.950Z,102543.55
2022-12-17T20:16:59.146Z,102559.22
2022-12-17T20:19:32.168Z,102560.39
2022-12-17T20:22:01.709Z,102551.89
2022-12-17T20:24:31.892Z,102550.16
2022-12-17T20:27:00.466Z,102551.27
2022-12-17T20:29:28.456Z,102546.82
2022-12-17T20:31:56.849Z,102549.80
2022-12-17T20:34:26.223Z,102550.52
2022-12-17T20:36:54.855Z,102552.35
2022-12-17T20:39:27.162Z,102543.29
2022-12-17T20:41:56.057Z,102544.27
2022-12-17T20:44:23.877Z,102540.48
2022-12-17T20:46:51.575Z,102546.43
2022-12-17T20:49:19.241Z,102545.25
2022-12-17T20:51:47.075Z,102550.16
2022-12-17T20:54:14.874Z,102556.24
2022-12-17T20:56:42.588Z,102556.14
2022-12-17T20:59:16.357Z,102559.05
2022-12-17T21:01:44.754Z,102559.87
2022-12-17T21:04:14.670Z,102569.84
2022-12-17T21:06:47.257Z,102560.03
2022-12-17T21:09:16.662Z,102568.02
2022-12-17T21:11:44.395Z,102568.83
2022-12-17T21:14:15.403Z,102566.84
2022-12-17T21:16:44.322Z,102570.83
2022-12-17T21:19:18.175Z,102570.83
2022-12-17T21:21:46.147Z,102571.19
2022-12-17T21:24:13.939Z,102566.05
2022-12-17T21:26:43.593Z,102568.30
2022-12-17T21:29:12.245Z,102581.42
2022-12-17T21:31:43.708Z,102578.51
2022-12-17T21:34:15.141Z,102587.86
2022-12-17T21:36:43.770Z,102593.55
2022-12-17T21:39:14.333Z,102588.19
2022-12-17T21:41:44.697Z,102588.19
2022-12-17T21:44:14.627Z,102576.52
2022-12-17T21:46:46.297Z,102574.45
2022-12-17T21:49:17.980Z,102566.57
2022-12-17T21:51:45.812Z,102569.71
2022-12-17T21:54:19.369Z,102570.99
2022-12-17T21:56:47.904Z,102565.16
2022-12-17T21:59:15.623Z,102566.02
2022-12-17T22:01:43.463Z,102575.11
2022-12-17T22:04:11.425Z,102579.39
2022-12-17T22:06:40.236Z,102580.57
2022-12-17T22:09:14.739Z,102591.16
2022-12-17T22:11:47.654Z,102584.10
2022-12-17T22:14:20.820Z,102585.64
2022-12-17T22:16:50.284Z,102585.73
2022-12-17T22:19:22.471Z,102582.37
2022-12-17T22:21:55.799Z,102575.01
2022-12-17T22:24:26.193Z,102583.45
2022-12-17T22:27:01.238Z,102584.62
2022-12-17T22:30:04.695Z,102585.45
2022-12-17T22:32:51.163Z,102591.95
2022-12-17T22:36:52.124Z,102593.78
2022-12-17T22:41:07.759Z,102597.87
2022-12-17T22:44:29.566Z,102595.41
2022-12-17T22:44:46.141Z,102584.20
2022-12-17T22:46:32.699Z,102579.20
2022-12-17T22:49:00.650Z,102573.70
2022-12-17T22:51:31.474Z,102576.05
2022-12-17T22:54:09.277Z,102569.06
2022-12-17T22:57:31.446Z,102569.35
2022-12-17T22:59:26.912Z,102567.95
2022-12-17T23:01:54.772Z,102577.79
2022-12-17T23:04:22.833Z,102586.49
2022-12-17T23:06:50.667Z,102589.63
2022-12-17T23:09:20.316Z,102583.22
2022-12-17T23:11:49.446Z,102582.73
2022-12-17T23:14:18.250Z,102587.89
2022-12-17T23:16:47.881Z,102593.48
2022-12-17T23:19:15.716Z,102588.35
2022-12-17T23:21:43.489Z,102584.85
2022-12-17T23:24:11.151Z,102585.64
2022-12-17T23:26:39.174Z,102592.60
2022-12-17T23:29:13.580Z,102596.69
2022-12-17T23:31:43.907Z,102595.84
2022-12-17T23:34:11.726Z,102589.89
2022-12-17T23:36:39.460Z,102591.88
2022-12-17T23:39:07.672Z,102589.01
2022-12-17T23:41:35.511Z,102585.87
2022-12-17T23:44:03.179Z,102588.68
2022-12-17T23:46:31.838Z,102585.15
2022-12-17T23:48:59.806Z,102592.57
2022-12-17T23:51:27.677Z,102602.28
2022-12-17T23:53:55.411Z,102601.83
2022-12-17T23:56:25.668Z,102610.33
2022-12-17T23:59:02.228Z,102604.02
